createdAt,value
2017-09-30T00:01:39.388Z,13.53
2017-09-30T00:04:06.879Z,9.83
2017-09-30T00:06:34.362Z,10.90
2017-09-30T00:09:08.450Z,14.27
2017-09-30T00:11:35.935Z,8.97
2017-09-30T00:14:03.434Z,12.47
2017-09-30T00:16:30.931Z,11.37
2017-09-30T00:18:58.744Z,14.63
2017-09-30T00:21:26.897Z,12.17
2017-09-30T00:23:54.398Z,11.70
2017-09-30T00:26:21.900Z,10.57
2017-09-30T00:28:56.370Z,13.30
2017-09-30T00:31:24.222Z,12.60
2017-09-30T00:33:57.420Z,9.77
2017-09-30T00:36:27.291Z,8.90
2017-09-30T00:38:54.815Z,7.00
2017-09-30T00:41:22.294Z,5.90
2017-09-30T00:43:57.231Z,7.37
2017-09-30T00:46:24.723Z,10.70
2017-09-30T00:48:52.990Z,9.07
2017-09-30T00:51:26.319Z,10.57
2017-09-30T00:53:57.222Z,7.63
2017-09-30T00:56:27.843Z,9.73
2017-09-30T00:58:55.341Z,7.33
2017-09-30T01:01:27.383Z,10.07
2017-09-30T01:03:58.287Z,11.00
2017-09-30T01:06:27.422Z,8.33
2017-09-30T01:08:55.686Z,10.77
2017-09-30T01:11:23.170Z,9.30
2017-09-30T01:13:57.190Z,10.77
2017-09-30T01:16:24.681Z,15.37
2017-09-30T01:18:58.662Z,14.10
2017-09-30T01:21:26.154Z,13.87
2017-09-30T01:23:53.649Z,12.90
2017-09-30T01:26:21.166Z,15.90
2017-09-30T01:28:56.861Z,12.03
2017-09-30T01:31:24.380Z,15.03
2017-09-30T01:33:51.858Z,13.80
2017-09-30T01:36:26.892Z,8.77
2017-09-30T01:38:57.710Z,10.87
2017-09-30T01:41:28.179Z,11.13
2017-09-30T01:43:56.434Z,11.93
2017-09-30T01:46:23.924Z,20.70
2017-09-30T01:48:52.183Z,13.73
2017-09-30T01:51:26.856Z,10.00
2017-09-30T01:53:58.174Z,10.57
2017-09-30T01:56:26.510Z,17.47
2017-09-30T01:58:54.037Z,17.90
2017-09-30T02:01:21.542Z,15.20
2017-09-30T02:03:49.042Z,15.20
2017-09-30T02:06:17.262Z,13.03
2017-09-30T02:08:48.548Z,14.27
2017-09-30T02:11:16.831Z,14.37
2017-09-30T02:13:45.098Z,21.33
2017-09-30T02:16:18.245Z,16.67
2017-09-30T02:18:47.358Z,9.60
2017-09-30T02:21:15.677Z,11.93
2017-09-30T02:23:43.191Z,10.50
2017-09-30T02:26:16.773Z,11.00
2017-09-30T02:28:44.286Z,8.70
2017-09-30T02:31:18.640Z,10.33
2017-09-30T02:33:46.147Z,11.60
2017-09-30T02:36:16.974Z,17.70
2017-09-30T02:38:47.703Z,8.73
2017-09-30T02:41:18.539Z,12.43
2017-09-30T02:43:47.467Z,14.20
2017-09-30T02:46:17.162Z,12.53
2017-09-30T02:48:47.788Z,10.83
2017-09-30T02:51:15.292Z,13.43
2017-09-30T02:53:42.794Z,10.60
2017-09-30T02:56:17.091Z,10.47
2017-09-30T02:58:44.582Z,14.53
2017-09-30T03:01:12.079Z,11.57
2017-09-30T03:03:46.419Z,14.03
2017-09-30T03:06:13.947Z,11.17
2017-09-30T03:08:42.198Z,11.17
2017-09-30T03:11:09.681Z,13.33
2017-09-30T03:13:37.182Z,13.13
2017-09-30T03:16:08.322Z,14.13
2017-09-30T03:18:35.831Z,15.87
2017-09-30T03:21:04.194Z,12.43
2017-09-30T03:23:31.995Z,18.30
2017-09-30T03:25:59.487Z,16.60
2017-09-30T03:28:37.442Z,16.33
2017-09-30T03:31:05.704Z,12.57
2017-09-30T03:33:33.195Z,14.33
2017-09-30T03:36:06.782Z,10.83
2017-09-30T03:38:35.039Z,12.00
2017-09-30T03:41:04.358Z,16.00
2017-09-30T03:43:31.858Z,12.00
2017-09-30T03:45:59.348Z,16.80
2017-09-30T03:48:36.779Z,22.17
2017-09-30T03:51:04.275Z,16.90
2017-09-30T03:53:37.434Z,22.90
2017-09-30T03:56:08.443Z,20.57
2017-09-30T03:58:47.018Z,26.83
2017-09-30T04:01:14.510Z,22.03
2017-09-30T04:03:42.018Z,19.53
2017-09-30T04:06:09.523Z,25.13
2017-09-30T04:08:37.007Z,20.83
2017-09-30T04:11:08.217Z,25.50
2017-09-30T04:13:36.926Z,27.30
2017-09-30T04:16:06.647Z,22.90
2017-09-30T04:18:34.920Z,23.33
2017-09-30T04:21:03.191Z,17.33
2017-09-30T04:23:37.671Z,21.07
2017-09-30T04:26:05.160Z,15.97
2017-09-30T04:28:38.934Z,21.90
2017-09-30T04:31:10.197Z,16.83
2017-09-30T04:33:47.402Z,15.10
2017-09-30T04:36:14.887Z,15.03
2017-09-30T04:38:49.067Z,16.90
2017-09-30T04:41:17.076Z,17.83
2017-09-30T04:43:44.570Z,19.17
2017-09-30T04:46:12.074Z,18.17
2017-09-30T04:48:40.347Z,13.97
2017-09-30T04:51:08.631Z,15.13
2017-09-30T04:53:46.782Z,15.33
2017-09-30T04:56:15.054Z,14.93
2017-09-30T04:58:48.435Z,17.90
2017-09-30T05:01:17.371Z,15.83
2017-09-30T05:03:44.867Z,19.73
2017-09-30T05:06:13.135Z,12.73
2017-09-30T05:08:47.626Z,17.67
2017-09-30T05:11:15.114Z,21.53
2017-09-30T05:13:43.704Z,18.43
2017-09-30T05:16:18.450Z,16.00
2017-09-30T05:18:46.722Z,14.00
2017-09-30T05:21:17.353Z,24.07
2017-09-30T05:23:48.046Z,15.37
2017-09-30T05:26:16.666Z,17.93
2017-09-30T05:28:44.919Z,15.43
2017-09-30T05:31:12.430Z,23.87
2017-09-30T05:33:46.499Z,19.57
2017-09-30T05:36:14.774Z,21.27
2017-09-30T05:38:43.035Z,23.73
2017-09-30T05:41:10.818Z,27.40
2017-09-30T05:43:39.096Z,30.43
2017-09-30T05:46:17.833Z,22.10
2017-09-30T05:48:46.586Z,22.40
2017-09-30T05:51:17.651Z,25.67
2017-09-30T05:53:45.910Z,22.90
2017-09-30T05:56:16.747Z,25.03
2017-09-30T05:58:47.463Z,20.47
2017-09-30T06:01:14.959Z,19.70
2017-09-30T06:03:43.235Z,25.53
2017-09-30T06:06:17.833Z,23.83
2017-09-30T06:08:47.150Z,24.23
2017-09-30T06:11:16.831Z,23.63
2017-09-30T06:13:44.343Z,18.20
2017-09-30T06:16:18.101Z,14.90
2017-09-30T06:18:45.676Z,18.07
2017-09-30T06:21:13.171Z,18.83
2017-09-30T06:23:46.508Z,19.00
2017-09-30T06:26:14.028Z,30.67
2017-09-30T06:28:47.190Z,19.50
2017-09-30T06:31:17.195Z,18.40
2017-09-30T06:33:44.695Z,18.10
2017-09-30T06:36:12.202Z,20.17
2017-09-30T06:38:39.710Z,15.20
2017-09-30T06:41:17.102Z,21.30
2017-09-30T06:43:48.271Z,19.70
2017-09-30T06:46:15.795Z,19.70
2017-09-30T06:48:46.911Z,17.53
2017-09-30T06:51:17.890Z,25.47
2017-09-30T06:53:45.390Z,16.80
2017-09-30T06:56:13.197Z,21.10
2017-09-30T06:58:41.471Z,18.20
2017-09-30T07:01:08.987Z,20.33
2017-09-30T07:03:36.567Z,18.87
2017-09-30T07:06:07.520Z,16.93
2017-09-30T07:08:37.317Z,20.20
2017-09-30T07:11:08.151Z,21.20
2017-09-30T07:13:35.679Z,20.10
2017-09-30T07:16:06.687Z,20.33
2017-09-30T07:18:38.499Z,21.70
2017-09-30T07:21:05.986Z,27.40
2017-09-30T07:23:34.267Z,26.63
2017-09-30T07:26:08.591Z,19.00
2017-09-30T07:28:36.862Z,21.57
2017-09-30T07:31:05.153Z,22.13
2017-09-30T07:33:38.948Z,19.57
2017-09-30T07:36:07.261Z,19.30
2017-09-30T07:38:34.772Z,17.60
2017-09-30T07:41:09.315Z,19.80
2017-09-30T07:43:48.083Z,18.00
2017-09-30T07:46:15.598Z,21.20
2017-09-30T07:48:46.899Z,19.10
2017-09-30T07:51:14.486Z,18.50
2017-09-30T07:53:42.767Z,18.10
2017-09-30T07:56:11.040Z,20.40
2017-09-30T07:58:39.310Z,17.83
2017-09-30T08:01:06.799Z,21.27
2017-09-30T08:03:34.309Z,24.03
2017-09-30T08:06:07.774Z,20.70
2017-09-30T08:08:35.609Z,17.77
2017-09-30T08:11:03.867Z,17.77
2017-09-30T08:13:37.290Z,21.90
2017-09-30T08:16:04.789Z,17.87
2017-09-30T08:18:32.294Z,19.43
2017-09-30T08:21:06.560Z,13.57
2017-09-30T08:23:34.053Z,12.80
2017-09-30T08:26:08.079Z,18.60
2017-09-30T08:28:36.375Z,20.50
2017-09-30T08:31:03.883Z,14.47
2017-09-30T08:33:31.377Z,12.53
2017-09-30T08:35:59.651Z,13.47
2017-09-30T08:38:27.949Z,18.40
2017-09-30T08:40:55.438Z,17.53
2017-09-30T08:43:22.934Z,14.83
2017-09-30T08:45:50.444Z,16.33
2017-09-30T08:48:17.943Z,14.30
2017-09-30T08:50:46.703Z,14.80
2017-09-30T08:53:14.194Z,17.70
2017-09-30T08:55:47.851Z,16.30
2017-09-30T08:58:15.367Z,14.97
2017-09-30T09:00:42.869Z,14.37
2017-09-30T09:03:16.434Z,20.73
2017-09-30T09:05:44.713Z,18.90
2017-09-30T09:08:19.303Z,15.10
2017-09-30T09:10:56.979Z,14.40
2017-09-30T09:13:27.950Z,12.90
2017-09-30T09:15:55.467Z,16.37
2017-09-30T09:18:28.777Z,16.07
2017-09-30T09:20:56.922Z,14.17
2017-09-30T09:23:24.447Z,16.37
2017-09-30T09:25:52.743Z,16.73
2017-09-30T09:28:27.290Z,17.63
2017-09-30T09:30:54.795Z,16.10
2017-09-30T09:33:28.135Z,11.43
2017-09-30T09:35:55.721Z,14.60
2017-09-30T09:38:23.218Z,14.13
2017-09-30T09:40:50.764Z,16.27
2017-09-30T09:43:27.892Z,14.87
2017-09-30T09:45:56.911Z,16.43
2017-09-30T09:48:27.678Z,15.00
2017-09-30T09:50:56.691Z,15.80
2017-09-30T09:53:24.958Z,12.03
2017-09-30T09:55:58.343Z,13.27
2017-09-30T09:58:27.568Z,9.70
2017-09-30T10:00:55.829Z,13.73
2017-09-30T10:03:29.012Z,16.57
2017-09-30T10:05:57.018Z,12.73
2017-09-30T10:08:27.827Z,10.37
2017-09-30T10:10:55.302Z,9.80
2017-09-30T10:13:23.574Z,15.97
2017-09-30T10:15:51.851Z,13.33
2017-09-30T10:18:26.703Z,15.33
2017-09-30T10:20:54.202Z,12.63
2017-09-30T10:23:28.152Z,12.57
2017-09-30T10:25:56.699Z,12.37
2017-09-30T10:28:27.206Z,20.20
2017-09-30T10:30:58.079Z,10.10
2017-09-30T10:33:26.671Z,14.47
2017-09-30T10:35:54.159Z,11.30
2017-09-30T10:38:27.907Z,10.33
2017-09-30T10:40:56.906Z,10.57
2017-09-30T10:43:27.749Z,8.47
2017-09-30T10:45:55.233Z,9.33
2017-09-30T10:48:27.359Z,17.97
2017-09-30T10:50:58.000Z,12.03
2017-09-30T10:53:26.765Z,13.70
2017-09-30T10:55:57.630Z,14.47
2017-09-30T11:01:15.753Z,10.13
2017-09-30T11:03:43.238Z,8.50
2017-09-30T11:06:17.130Z,13.53
2017-09-30T11:08:44.618Z,12.20
2017-09-30T11:11:18.363Z,9.10
2017-09-30T11:13:46.619Z,9.07
2017-09-30T11:16:18.046Z,9.17
2017-09-30T11:18:46.314Z,10.57
2017-09-30T11:21:13.804Z,12.90
2017-09-30T11:23:47.963Z,8.10
2017-09-30T11:26:16.927Z,9.70
2017-09-30T11:28:45.192Z,11.90
2017-09-30T11:31:17.334Z,7.27
2017-09-30T11:33:48.159Z,10.00
2017-09-30T11:36:16.855Z,9.47
2017-09-30T11:38:44.343Z,7.03
2017-09-30T11:41:12.618Z,5.90
2017-09-30T11:43:46.638Z,6.77
2017-09-30T11:46:16.637Z,7.10
2017-09-30T11:48:44.919Z,6.13
2017-09-30T11:51:12.420Z,10.10
2017-09-30T11:53:47.055Z,9.93
2017-09-30T11:56:14.543Z,7.63
2017-09-30T11:58:48.340Z,13.30
2017-09-30T12:01:15.829Z,8.47
2017-09-30T12:03:47.355Z,5.53
2017-09-30T12:06:14.851Z,8.23
2017-09-30T12:08:48.130Z,9.40
2017-09-30T12:11:17.210Z,8.60
2017-09-30T12:13:47.926Z,11.67
2017-09-30T12:16:16.665Z,8.57
2017-09-30T12:18:47.368Z,7.33
2017-09-30T12:21:14.865Z,5.97
2017-09-30T12:23:42.367Z,7.40
2017-09-30T12:26:16.419Z,10.50
2017-09-30T12:28:44.687Z,6.47
2017-09-30T12:31:17.129Z,9.47
2017-09-30T12:33:44.734Z,6.10
2017-09-30T12:36:13.001Z,8.80
2017-09-30T12:38:41.253Z,5.90
2017-09-30T12:41:16.891Z,6.87
2017-09-30T12:43:44.379Z,8.00
2017-09-30T12:46:12.667Z,6.30
2017-09-30T12:48:40.936Z,5.93
2017-09-30T12:51:17.180Z,7.80
2017-09-30T12:53:44.671Z,7.27
2017-09-30T12:56:12.941Z,6.20
2017-09-30T12:58:41.211Z,9.97
2017-09-30T13:01:10.204Z,7.83
2017-09-30T13:03:46.415Z,8.80
2017-09-30T13:06:13.931Z,5.50
2017-09-30T13:08:48.296Z,7.70
2017-09-30T13:11:15.817Z,6.80
2017-09-30T13:13:44.079Z,5.10
2017-09-30T13:16:18.811Z,5.70
2017-09-30T13:18:47.089Z,11.93
2017-09-30T13:21:17.103Z,7.53
2017-09-30T13:23:45.380Z,5.67
2017-09-30T13:26:13.659Z,5.90
2017-09-30T13:28:41.942Z,4.67
2017-09-30T13:31:10.204Z,3.07
2017-09-30T13:33:38.088Z,4.03
2017-09-30T13:36:06.347Z,4.03
2017-09-30T13:38:33.845Z,1.40
2017-09-30T14:06:54.991Z,1.20
2017-09-30T14:09:23.316Z,14.40
2017-09-30T14:11:50.812Z,3.00
2017-09-30T14:14:18.292Z,1.03
2017-09-30T14:16:46.566Z,1.33
2017-09-30T14:19:14.849Z,0.90
2017-09-30T14:21:43.102Z,3.20
2017-09-30T14:24:10.639Z,1.77
2017-09-30T14:26:38.135Z,1.40
2017-09-30T14:29:05.673Z,1.27
2017-09-30T14:31:33.159Z,2.80
2017-09-30T14:34:01.425Z,1.80
2017-09-30T14:36:28.934Z,1.47
2017-09-30T14:38:56.422Z,1.60
2017-09-30T14:41:23.934Z,0.80
2017-09-30T14:43:51.424Z,1.97
2017-09-30T14:46:18.931Z,0.90
2017-09-30T14:48:47.190Z,1.33
2017-09-30T14:51:14.676Z,1.40
2017-09-30T14:53:42.931Z,1.70
2017-09-30T14:56:10.421Z,1.27
2017-09-30T14:58:37.919Z,2.27
2017-09-30T15:01:05.406Z,2.70
2017-09-30T15:03:33.682Z,1.33
2017-09-30T15:06:01.163Z,2.20
2017-09-30T15:08:29.423Z,1.23
2017-09-30T15:10:57.682Z,1.80
2017-09-30T15:13:25.167Z,2.83
2017-09-30T15:15:53.443Z,1.27
2017-09-30T15:18:21.699Z,1.30
2017-09-30T15:20:50.695Z,0.97
2017-09-30T15:23:19.706Z,1.30
2017-09-30T15:25:47.960Z,1.33
2017-09-30T15:28:15.446Z,0.90
2017-09-30T15:30:43.698Z,1.90
2017-09-30T15:33:11.195Z,1.90
2017-09-30T15:35:38.680Z,3.63
2017-09-30T15:38:06.187Z,0.83
2017-09-30T15:40:34.448Z,1.70
2017-09-30T15:43:01.927Z,1.20
2017-09-30T15:45:30.198Z,3.10
2017-09-30T15:47:58.455Z,0.83
2017-09-30T15:50:25.954Z,0.80
2017-09-30T15:52:53.448Z,6.70
2017-09-30T15:55:21.214Z,5.10
2017-09-30T15:57:48.710Z,2.60
2017-09-30T16:00:16.970Z,2.20
2017-09-30T16:02:44.514Z,1.90
2017-09-30T16:05:12.004Z,2.50
2017-09-30T16:07:40.267Z,1.70
2017-09-30T16:10:07.774Z,1.53
2017-09-30T16:12:35.283Z,1.00
2017-09-30T16:15:02.781Z,3.27
2017-09-30T16:17:30.270Z,1.40
2017-09-30T16:19:57.766Z,0.97
2017-09-30T16:22:25.255Z,1.20
2017-09-30T16:24:53.522Z,1.10
2017-09-30T16:27:21.011Z,1.90
2017-09-30T16:29:48.527Z,3.87
2017-09-30T16:32:16.799Z,2.23
2017-09-30T16:34:45.074Z,1.23
2017-09-30T16:37:13.347Z,1.37
2017-09-30T16:39:41.622Z,1.40
2017-09-30T16:42:10.484Z,2.83
2017-09-30T16:44:37.990Z,1.00
2017-09-30T16:47:06.252Z,1.40
2017-09-30T16:49:33.739Z,3.17
2017-09-30T16:52:01.235Z,1.43
2017-09-30T16:54:29.042Z,1.20
2017-09-30T16:56:57.291Z,2.07
2017-09-30T16:59:24.775Z,1.30
2017-09-30T17:01:53.042Z,0.93
2017-09-30T17:04:21.295Z,3.17
2017-09-30T17:06:48.801Z,8.90
2017-09-30T17:09:16.286Z,1.90
2017-09-30T17:11:43.775Z,1.10
2017-09-30T17:14:11.267Z,1.10
2017-09-30T17:16:39.519Z,1.30
2017-09-30T17:19:07.306Z,1.50
2017-09-30T17:21:35.562Z,1.80
2017-09-30T17:24:03.048Z,3.30
2017-09-30T17:26:31.318Z,2.53
2017-09-30T17:28:59.562Z,1.20
2017-09-30T17:31:27.047Z,4.53
2017-09-30T17:33:55.360Z,1.30
2017-09-30T17:36:22.839Z,1.33
2017-09-30T17:38:50.347Z,1.00
2017-09-30T17:41:18.594Z,1.20
2017-09-30T17:43:46.078Z,2.03
2017-09-30T17:46:14.339Z,1.40
2017-09-30T17:48:42.594Z,1.23
2017-09-30T17:51:10.085Z,0.80
2017-09-30T17:53:38.329Z,0.90
2017-09-30T17:56:05.856Z,3.80
2017-09-30T17:58:33.344Z,1.30
2017-09-30T18:01:00.870Z,2.10
2017-09-30T18:03:28.355Z,1.57
2017-09-30T18:05:55.834Z,1.40
2017-09-30T18:08:23.339Z,1.23
2017-09-30T18:10:50.839Z,1.23
2017-09-30T18:13:18.331Z,1.20
2017-09-30T18:15:46.595Z,3.20
2017-09-30T18:18:14.851Z,1.97
2017-09-30T18:20:42.335Z,2.33
2017-09-30T18:23:10.602Z,1.60
2017-09-30T18:25:38.091Z,1.20
2017-09-30T18:28:06.340Z,1.60
2017-09-30T18:30:34.606Z,1.90
2017-09-30T18:33:02.099Z,1.37
2017-09-30T18:35:29.577Z,1.93
2017-09-30T18:37:57.833Z,1.97
2017-09-30T18:40:26.074Z,1.40
2017-09-30T18:42:53.575Z,1.40
2017-09-30T18:45:21.064Z,2.20
2017-09-30T18:47:48.566Z,4.60
2017-09-30T18:50:16.826Z,2.73
2017-09-30T18:52:44.306Z,3.70
2017-09-30T18:55:12.564Z,3.17
2017-09-30T18:57:40.040Z,2.50
2017-09-30T19:00:08.299Z,1.80
2017-09-30T19:02:35.778Z,2.50
2017-09-30T19:05:04.034Z,2.63
2017-09-30T19:07:31.515Z,2.80
2017-09-30T19:09:59.778Z,1.80
2017-09-30T19:12:28.034Z,2.10
2017-09-30T19:14:55.525Z,2.10
2017-09-30T19:17:23.784Z,1.67
2017-09-30T19:19:52.774Z,2.03
2017-09-30T19:22:20.563Z,2.57
2017-09-30T19:24:48.046Z,2.33
2017-09-30T19:27:15.530Z,2.50
2017-09-30T19:29:43.025Z,2.20
2017-09-30T19:32:11.284Z,2.70
2017-09-30T19:34:38.796Z,2.73
2017-09-30T19:37:06.280Z,6.93
2017-09-30T19:39:33.765Z,2.83
2017-09-30T19:42:01.259Z,5.20
2017-09-30T19:44:28.848Z,3.57
2017-09-30T19:46:56.347Z,2.63
2017-09-30T19:49:24.600Z,2.17
2017-09-30T19:51:52.106Z,4.67
2017-09-30T19:54:19.592Z,3.50
2017-09-30T19:56:47.076Z,3.30
2017-09-30T19:59:15.348Z,1.73
2017-09-30T20:01:42.872Z,3.83
2017-09-30T20:04:10.387Z,2.00
2017-09-30T20:06:37.867Z,2.17
2017-09-30T20:09:06.113Z,5.13
2017-09-30T20:11:33.615Z,4.50
2017-09-30T20:14:01.110Z,2.57
2017-09-30T20:16:28.599Z,3.40
2017-09-30T20:18:56.084Z,2.30
2017-09-30T20:21:23.587Z,3.63
2017-09-30T20:23:51.934Z,2.30
2017-09-30T20:26:19.420Z,2.63
2017-09-30T20:28:46.934Z,2.87
2017-09-30T20:31:15.188Z,2.53
2017-09-30T20:33:43.468Z,3.57
2017-09-30T20:36:11.719Z,7.93
2017-09-30T20:38:39.208Z,2.47
2017-09-30T20:41:07.466Z,3.03
2017-09-30T20:43:34.951Z,2.00
2017-09-30T20:46:03.211Z,1.60
2017-09-30T20:48:31.467Z,2.13
2017-09-30T20:50:58.969Z,2.50
2017-09-30T20:53:26.462Z,2.60
2017-09-30T20:55:53.951Z,2.77
2017-09-30T20:58:21.447Z,1.53
2017-09-30T21:00:48.930Z,1.40
2017-09-30T21:03:16.740Z,1.63
2017-09-30T21:05:44.991Z,2.33
2017-09-30T21:08:12.795Z,7.97
2017-09-30T21:10:41.109Z,1.23
2017-09-30T21:13:08.590Z,1.43
2017-09-30T21:15:36.083Z,2.73
2017-09-30T21:18:04.338Z,1.97
2017-09-30T21:20:31.833Z,3.50
2017-09-30T21:23:00.078Z,6.97
2017-09-30T21:25:27.554Z,3.17
2017-09-30T21:27:55.822Z,3.10
2017-09-30T21:30:23.309Z,1.50
2017-09-30T21:32:50.812Z,4.67
2017-09-30T21:35:18.303Z,3.60
2017-09-30T21:37:46.568Z,2.60
2017-09-30T21:40:14.047Z,2.80
2017-09-30T21:42:42.295Z,1.37
2017-09-30T21:45:09.782Z,2.80
2017-09-30T21:47:38.043Z,1.50
2017-09-30T21:50:06.322Z,1.87
2017-09-30T21:52:34.580Z,3.37
2017-09-30T21:55:02.079Z,4.20
2017-09-30T21:57:29.567Z,2.67
2017-09-30T21:59:57.042Z,3.53
2017-09-30T22:02:24.540Z,5.23
2017-09-30T22:04:52.788Z,2.33
2017-09-30T22:07:20.591Z,1.60
2017-09-30T22:09:48.086Z,2.97
2017-09-30T22:12:15.578Z,3.83
2017-09-30T22:14:43.082Z,3.97
2017-09-30T22:17:10.571Z,2.33
2017-09-30T22:19:38.067Z,2.87
2017-09-30T22:22:06.326Z,1.40
2017-09-30T22:24:33.823Z,3.70
2017-09-30T22:27:01.314Z,1.63
2017-09-30T22:29:28.812Z,2.37
2017-09-30T22:31:57.083Z,2.20
2017-09-30T22:34:24.564Z,1.60
2017-09-30T22:36:52.851Z,5.00
2017-09-30T22:39:21.098Z,1.60
2017-09-30T22:41:48.579Z,3.20
2017-09-30T22:44:16.086Z,2.50
2017-09-30T22:46:43.571Z,1.03
2017-09-30T22:49:11.350Z,1.73
2017-09-30T22:51:39.594Z,2.33
2017-09-30T22:54:07.070Z,3.33
2017-09-30T22:56:34.578Z,1.43
2017-09-30T22:59:02.059Z,2.30
2017-09-30T23:01:29.551Z,2.23
2017-09-30T23:03:57.040Z,1.63
2017-09-30T23:06:24.564Z,4.33
2017-09-30T23:08:52.043Z,2.00
2017-09-30T23:11:20.298Z,2.17
2017-09-30T23:13:47.803Z,2.00
2017-09-30T23:16:15.290Z,2.77
2017-09-30T23:18:42.790Z,2.53
2017-09-30T23:21:11.034Z,4.43
2017-09-30T23:23:38.515Z,2.37
2017-09-30T23:26:06.783Z,1.87
2017-09-30T23:28:35.041Z,2.37
2017-09-30T23:31:02.531Z,2.73
2017-09-30T23:33:30.794Z,2.67
2017-09-30T23:35:58.304Z,9.67
2017-09-30T23:38:25.792Z,2.70
2017-09-30T23:40:53.275Z,1.90
2017-09-30T23:43:21.535Z,4.07
2017-09-30T23:45:49.034Z,8.50
2017-09-30T23:48:16.533Z,2.43
2017-09-30T23:50:44.022Z,3.40
2017-09-30T23:53:12.275Z,1.90
2017-09-30T23:55:39.766Z,5.47
2017-09-30T23:58:08.035Z,2.47
